createdAt,value
2022-12-13T00:00:25.855Z,16.38
2022-12-13T00:03:12.119Z,14.48
2022-12-13T00:05:57.596Z,15.23
2022-12-13T00:08:43.110Z,15.63
2022-12-13T00:11:28.722Z,14.65
2022-12-13T00:14:14.711Z,16.52
2022-12-13T00:17:00.269Z,16.67
2022-12-13T00:19:47.358Z,15.02
2022-12-13T00:22:32.796Z,15.57
2022-12-13T00:25:20.443Z,14.18
2022-12-13T00:28:06.277Z,15.93
2022-12-13T00:30:51.673Z,14.88
2022-12-13T00:33:40.444Z,16.10
2022-12-13T00:36:26.512Z,14.23
2022-12-13T00:39:13.957Z,13.88
2022-12-13T00:41:59.538Z,16.17
2022-12-13T00:44:45.106Z,17.08
2022-12-13T00:47:30.788Z,15.82
2022-12-13T00:50:16.330Z,15.93
2022-12-13T00:53:02.151Z,17.15
2022-12-13T00:55:47.722Z,13.68
2022-12-13T00:58:33.351Z,14.38
2022-12-13T01:01:21.010Z,15.73
2022-12-13T01:04:07.883Z,15.55
2022-12-13T01:06:54.571Z,16.83
2022-12-13T01:09:40.003Z,16.67
2022-12-13T01:12:25.823Z,18.55
2022-12-13T01:15:11.815Z,18.98
2022-12-13T01:17:57.754Z,20.27
2022-12-13T01:20:43.807Z,18.83
2022-12-13T01:23:29.782Z,19.50
2022-12-13T01:26:21.475Z,19.15
2022-12-13T01:29:07.032Z,16.58
2022-12-13T01:31:53.328Z,17.80
2022-12-13T01:34:38.538Z,16.98
2022-12-13T01:37:26.171Z,18.80
2022-12-13T01:40:16.115Z,19.60
2022-12-13T01:43:02.673Z,19.13
2022-12-13T01:46:00.072Z,21.05
2022-12-13T01:49:05.928Z,20.77
2022-12-13T01:52:08.908Z,19.30
2022-12-13T01:55:03.815Z,18.77
2022-12-13T01:58:02.999Z,17.83
2022-12-13T02:00:49.292Z,19.92
2022-12-13T02:03:35.619Z,19.30
2022-12-13T02:06:31.810Z,19.50
2022-12-13T02:09:18.794Z,21.58
2022-12-13T02:12:04.919Z,18.30
2022-12-13T02:14:51.724Z,19.60
2022-12-13T02:17:53.190Z,20.15
2022-12-13T02:21:02.873Z,19.90
2022-12-13T02:23:57.470Z,18.98
2022-12-13T02:27:31.490Z,20.88
2022-12-13T02:30:22.445Z,18.15
2022-12-13T02:33:10.637Z,18.13
2022-12-13T02:36:11.053Z,17.80
2022-12-13T02:39:17.489Z,18.20
2022-12-13T02:42:26.697Z,19.40
2022-12-13T02:45:20.869Z,19.45
2022-12-13T02:48:10.865Z,18.35
2022-12-13T02:50:58.819Z,18.27
2022-12-13T02:53:46.221Z,20.10
2022-12-13T02:56:32.832Z,17.25
2022-12-13T02:59:18.707Z,19.30
2022-12-13T03:02:35.707Z,18.98
2022-12-13T03:06:06.206Z,16.92
2022-12-13T03:09:26.323Z,16.85
2022-12-13T03:12:54.041Z,16.10
2022-12-13T03:15:47.298Z,16.65
2022-12-13T03:18:34.075Z,17.88
2022-12-13T03:21:19.946Z,16.08
2022-12-13T03:24:06.012Z,16.30
2022-12-13T03:26:52.011Z,16.27
2022-12-13T03:29:40.543Z,15.57
2022-12-13T03:32:26.284Z,17.13
2022-12-13T03:35:21.838Z,18.45
2022-12-13T03:38:08.874Z,16.30
2022-12-13T03:40:58.420Z,15.80
2022-12-13T03:43:44.215Z,15.43
2022-12-13T03:46:29.614Z,15.50
2022-12-13T03:49:17.359Z,15.25
2022-12-13T03:52:03.267Z,14.07
2022-12-13T03:54:48.994Z,15.85
2022-12-13T03:57:34.472Z,16.10
2022-12-13T04:00:20.471Z,15.75
2022-12-13T04:03:06.874Z,16.08
2022-12-13T04:05:52.142Z,15.90
2022-12-13T04:08:38.705Z,15.80
2022-12-13T04:11:43.522Z,17.00
2022-12-13T04:14:29.092Z,16.60
2022-12-13T04:17:14.920Z,17.27
2022-12-13T04:20:00.702Z,15.63
2022-12-13T04:22:45.924Z,18.88
2022-12-13T04:25:31.490Z,15.18
2022-12-13T04:28:22.583Z,15.73
2022-12-13T04:31:08.773Z,17.10
2022-12-13T04:33:54.267Z,18.42
2022-12-13T04:36:39.655Z,17.80
2022-12-13T04:39:25.348Z,18.55
2022-12-13T04:42:20.041Z,16.90
2022-12-13T04:45:06.580Z,15.80
2022-12-13T04:47:52.146Z,17.45
2022-12-13T04:50:37.732Z,17.77
2022-12-13T04:53:23.491Z,17.17
2022-12-13T04:56:09.543Z,16.10
2022-12-13T04:58:55.229Z,15.73
2022-12-13T05:01:40.628Z,17.60
2022-12-13T05:04:32.127Z,15.95
2022-12-13T05:07:18.364Z,17.02
2022-12-13T05:10:04.536Z,17.08
2022-12-13T05:12:49.964Z,16.75
2022-12-13T05:15:39.572Z,15.80
2022-12-13T05:18:26.149Z,15.73
2022-12-13T05:21:12.623Z,16.35
2022-12-13T05:23:58.191Z,15.30
2022-12-13T05:26:43.703Z,15.70
2022-12-13T05:29:29.391Z,15.07
2022-12-13T05:32:15.482Z,16.55
2022-12-13T05:35:00.989Z,15.55
2022-12-13T05:37:46.643Z,14.73
2022-12-13T05:40:40.293Z,14.43
2022-12-13T05:43:42.643Z,15.77
2022-12-13T05:46:29.608Z,13.90
2022-12-13T05:49:15.244Z,14.57
2022-12-13T05:52:00.980Z,15.60
2022-12-13T05:54:47.067Z,15.57
2022-12-13T05:57:33.009Z,15.02
2022-12-13T06:00:29.904Z,15.05
2022-12-13T06:03:16.474Z,15.90
2022-12-13T06:06:03.395Z,16.15
2022-12-13T06:08:49.042Z,16.85
2022-12-13T06:11:34.797Z,15.40
2022-12-13T06:14:29.429Z,14.10
2022-12-13T06:17:15.191Z,15.38
2022-12-13T06:20:24.214Z,15.27
2022-12-13T06:23:10.708Z,14.98
2022-12-13T06:25:56.050Z,13.98
2022-12-13T06:28:41.800Z,13.60
2022-12-13T06:31:27.450Z,14.45
2022-12-13T06:34:14.962Z,12.07
2022-12-13T06:37:01.921Z,14.98
2022-12-13T06:39:47.757Z,13.60
2022-12-13T06:42:33.919Z,14.23
2022-12-13T06:45:20.314Z,14.38
2022-12-13T06:48:05.962Z,16.13
2022-12-13T06:50:52.994Z,14.68
2022-12-13T06:53:40.458Z,15.60
2022-12-13T06:56:26.181Z,14.55
2022-12-13T06:59:12.680Z,15.27
2022-12-13T07:02:03.190Z,14.65
2022-12-13T07:04:49.656Z,15.20
2022-12-13T07:07:35.475Z,15.00
2022-12-13T07:10:22.022Z,15.68
2022-12-13T07:13:08.867Z,16.80
2022-12-13T07:15:54.608Z,18.65
2022-12-13T07:18:47.084Z,20.48
2022-12-13T07:21:33.344Z,19.10
2022-12-13T07:24:19.051Z,17.90
2022-12-13T07:27:05.092Z,18.17
2022-12-13T07:29:50.424Z,17.95
2022-12-13T07:32:35.959Z,18.45
2022-12-13T07:35:21.627Z,16.20
2022-12-13T07:38:08.317Z,15.95
2022-12-13T07:40:57.097Z,18.42
2022-12-13T07:43:42.937Z,17.80
2022-12-13T07:46:33.490Z,19.52
2022-12-13T07:49:19.464Z,17.50
2022-12-13T07:52:11.406Z,18.40
2022-12-13T07:54:56.735Z,17.58
2022-12-13T07:57:42.296Z,16.00
2022-12-13T08:00:27.921Z,16.77
2022-12-13T08:03:24.535Z,17.50
2022-12-13T08:06:12.295Z,18.58
2022-12-13T08:08:58.343Z,18.38
2022-12-13T08:11:43.896Z,18.88
2022-12-13T08:14:29.479Z,18.30
2022-12-13T08:17:15.129Z,18.35
2022-12-13T08:20:00.863Z,19.13
2022-12-13T08:22:49.553Z,16.17
2022-12-13T08:25:35.062Z,17.10
2022-12-13T08:28:20.678Z,18.42
2022-12-13T08:31:11.490Z,16.42
2022-12-13T08:33:57.480Z,17.85
2022-12-13T08:36:43.210Z,18.35
2022-12-13T08:39:28.977Z,16.95
2022-12-13T08:42:19.234Z,15.43
2022-12-13T08:45:05.944Z,16.63
2022-12-13T08:47:51.490Z,16.85
2022-12-13T08:50:37.233Z,17.13
2022-12-13T08:53:27.878Z,18.63
2022-12-13T08:56:15.412Z,16.52
2022-12-13T08:59:01.269Z,17.65
2022-12-13T09:01:47.516Z,18.55
2022-12-13T09:04:39.825Z,17.70
2022-12-13T09:07:25.313Z,18.58
2022-12-13T09:10:26.671Z,19.65
2022-12-13T09:13:13.386Z,19.60
2022-12-13T09:16:23.545Z,19.50
2022-12-13T09:19:25.258Z,18.40
2022-12-13T09:22:14.706Z,18.90
2022-12-13T09:25:02.468Z,19.27
2022-12-13T09:27:48.515Z,16.85
2022-12-13T09:30:35.583Z,17.75
2022-12-13T09:33:30.123Z,19.63
2022-12-13T09:36:19.119Z,18.67
2022-12-13T09:39:05.275Z,19.35
2022-12-13T09:42:01.440Z,19.38
2022-12-13T09:45:03.325Z,19.45
2022-12-13T09:47:51.419Z,20.42
2022-12-13T09:50:40.427Z,20.67
2022-12-13T09:53:33.784Z,20.02
2022-12-13T09:56:22.092Z,17.48
2022-12-13T09:59:14.007Z,17.27
2022-12-13T10:02:22.478Z,19.23
2022-12-13T10:05:38.383Z,19.55
2022-12-13T10:08:33.073Z,18.30
2022-12-13T10:11:20.238Z,18.08
2022-12-13T10:14:16.935Z,18.92
2022-12-13T10:17:08.096Z,17.75
2022-12-13T10:19:53.875Z,18.00
2022-12-13T10:22:39.405Z,18.50
2022-12-13T10:25:51.073Z,19.27
2022-12-13T10:28:37.613Z,18.80
2022-12-13T10:31:23.525Z,19.25
2022-12-13T10:34:21.325Z,20.77
2022-12-13T10:37:24.419Z,19.63
2022-12-13T10:40:31.986Z,17.70
2022-12-13T10:43:23.026Z,18.80
2022-12-13T10:46:25.011Z,17.88
2022-12-13T10:49:18.785Z,19.05
2022-12-13T10:52:05.171Z,17.45
2022-12-13T10:54:52.473Z,18.60
2022-12-13T10:57:56.178Z,17.63
2022-12-13T11:00:44.919Z,19.70
2022-12-13T11:03:33.067Z,17.60
2022-12-13T11:06:18.917Z,18.10
2022-12-13T11:09:28.554Z,17.55
2022-12-13T11:12:16.544Z,16.77
2022-12-13T11:15:07.283Z,19.25
2022-12-13T11:18:00.048Z,19.13
2022-12-13T11:21:07.669Z,17.98
2022-12-13T11:23:56.834Z,17.98
2022-12-13T11:26:57.809Z,19.02
2022-12-13T11:29:49.777Z,17.17
2022-12-13T11:32:58.891Z,19.77
2022-12-13T11:36:26.629Z,18.67
2022-12-13T11:39:26.826Z,16.58
2022-12-13T11:42:22.510Z,19.00
2022-12-13T11:45:24.467Z,17.70
2022-12-13T11:48:10.045Z,18.13
2022-12-13T11:50:56.724Z,17.35
2022-12-13T11:54:08.834Z,18.02
2022-12-13T11:57:00.335Z,17.75
2022-12-13T11:59:54.805Z,18.85
2022-12-13T12:02:55.720Z,19.48
2022-12-13T12:05:56.396Z,17.55
2022-12-13T12:08:57.674Z,18.73
2022-12-13T12:11:54.485Z,18.42
2022-12-13T12:15:15.178Z,19.05
2022-12-13T12:18:02.263Z,19.10
2022-12-13T12:21:07.616Z,19.42
2022-12-13T12:24:13.012Z,20.02
2022-12-13T12:27:10.643Z,16.92
2022-12-13T12:30:24.294Z,17.25
2022-12-13T12:33:29.685Z,17.40
2022-12-13T12:36:43.002Z,18.85
2022-12-13T12:39:50.411Z,18.30
2022-12-13T12:43:13.815Z,19.42
2022-12-13T12:46:15.974Z,19.70
2022-12-13T12:49:16.994Z,17.27
2022-12-13T12:52:21.383Z,17.98
2022-12-13T12:55:13.083Z,17.67
2022-12-13T12:58:20.176Z,18.38
2022-12-13T13:01:11.827Z,18.83
2022-12-13T13:04:02.048Z,18.40
2022-12-13T13:06:53.592Z,18.65
2022-12-13T13:09:47.619Z,19.30
2022-12-13T13:12:38.954Z,18.98
2022-12-13T13:15:31.659Z,19.90
2022-12-13T13:18:45.673Z,19.73
2022-12-13T13:21:31.649Z,20.17
2022-12-13T13:24:18.920Z,18.02
2022-12-13T13:27:10.214Z,21.48
2022-12-13T13:30:24.597Z,19.55
2022-12-13T13:33:49.797Z,19.08
2022-12-13T13:36:38.918Z,20.60
2022-12-13T13:39:36.415Z,18.92
2022-12-13T13:42:24.833Z,18.75
2022-12-13T13:45:22.775Z,19.48
2022-12-13T13:48:19.485Z,19.67
2022-12-13T13:51:29.756Z,18.70
2022-12-13T13:54:18.784Z,18.00
2022-12-13T13:57:10.113Z,20.20
2022-12-13T14:00:19.423Z,19.42
2022-12-13T14:03:34.124Z,19.40
2022-12-13T14:06:48.673Z,19.05
2022-12-13T14:10:22.112Z,19.33
2022-12-13T14:13:10.288Z,19.98
2022-12-13T14:16:30.609Z,19.33
2022-12-13T14:19:25.287Z,20.83
2022-12-13T14:22:17.806Z,19.55
2022-12-13T14:25:23.503Z,20.30
2022-12-13T14:28:23.329Z,22.02
2022-12-13T14:31:21.703Z,19.92
2022-12-13T14:34:28.894Z,20.10
2022-12-13T14:37:33.636Z,21.17
2022-12-13T14:40:27.503Z,20.67
2022-12-13T14:43:34.060Z,21.30
2022-12-13T14:46:20.044Z,19.75
2022-12-13T14:49:07.960Z,20.27
2022-12-13T14:52:05.500Z,18.60
2022-12-13T14:54:58.162Z,19.95
2022-12-13T14:57:53.303Z,19.23
2022-12-13T15:00:40.567Z,20.20
2022-12-13T15:03:28.267Z,18.90
2022-12-13T15:06:14.626Z,20.67
2022-12-13T15:09:00.300Z,21.55
2022-12-13T15:11:46.455Z,22.40
2022-12-13T15:14:32.180Z,21.50
2022-12-13T15:17:32.419Z,20.40
2022-12-13T15:20:31.362Z,20.85
2022-12-13T15:23:29.993Z,20.15
2022-12-13T15:26:28.610Z,20.97
2022-12-13T15:29:21.143Z,20.75
2022-12-13T15:32:13.163Z,21.55
2022-12-13T15:35:21.345Z,21.55
2022-12-13T15:38:28.597Z,22.83
2022-12-13T15:41:20.853Z,21.67
2022-12-13T15:44:24.611Z,20.60
2022-12-13T15:47:28.539Z,21.58
2022-12-13T15:50:50.324Z,20.38
2022-12-13T15:53:37.723Z,21.17
2022-12-13T15:56:31.729Z,19.50
2022-12-13T15:59:31.208Z,21.33
2022-12-13T16:02:24.446Z,22.30
2022-12-13T16:05:29.726Z,21.20
2022-12-13T16:08:35.576Z,21.08
2022-12-13T16:11:39.148Z,21.42
2022-12-13T16:14:30.837Z,20.90
2022-12-13T16:17:19.745Z,18.40
2022-12-13T16:20:14.531Z,19.98
2022-12-13T16:23:00.823Z,20.13
2022-12-13T16:25:54.564Z,21.55
2022-12-13T16:28:40.853Z,20.95
2022-12-13T16:31:31.362Z,21.35
2022-12-13T16:34:18.087Z,22.15
2022-12-13T16:37:08.922Z,23.08
2022-12-13T16:40:36.917Z,21.02
2022-12-13T16:43:32.966Z,20.58
2022-12-13T16:47:16.102Z,21.25
2022-12-13T16:49:27.878Z,21.23
2022-12-13T16:52:13.663Z,21.35
2022-12-13T16:55:00.583Z,19.08
2022-12-13T16:57:56.492Z,22.40
2022-12-13T17:00:43.878Z,21.48
2022-12-13T17:03:29.982Z,21.75
2022-12-13T17:06:20.191Z,21.50
2022-12-13T17:09:06.183Z,23.27
2022-12-13T17:11:51.964Z,22.77
2022-12-13T17:14:37.362Z,24.55
2022-12-13T17:17:22.973Z,24.58
2022-12-13T17:20:11.029Z,26.35
2022-12-13T17:22:56.571Z,25.48
2022-12-13T17:25:42.514Z,26.30
2022-12-13T17:28:28.051Z,26.70
2022-12-13T17:31:13.965Z,26.05
2022-12-13T17:33:59.981Z,26.85
2022-12-13T17:36:45.990Z,26.15
2022-12-13T17:39:31.876Z,22.42
2022-12-13T17:42:17.997Z,24.33
2022-12-13T17:45:03.840Z,24.23
2022-12-13T17:47:50.884Z,25.05
2022-12-13T17:50:39.942Z,25.40
2022-12-13T17:53:26.426Z,24.58
2022-12-13T17:56:15.859Z,24.27
2022-12-13T17:59:01.453Z,27.08
2022-12-13T18:01:47.345Z,25.35
2022-12-13T18:04:32.997Z,24.05
2022-12-13T18:07:19.099Z,23.38
2022-12-13T18:10:05.547Z,23.25
2022-12-13T18:12:51.069Z,24.85
2022-12-13T18:15:36.989Z,23.80
2022-12-13T18:18:22.945Z,22.80
2022-12-13T18:21:14.939Z,24.48
2022-12-13T18:24:01.054Z,22.13
2022-12-13T18:26:46.453Z,20.50
2022-12-13T18:29:33.284Z,20.77
2022-12-13T18:32:19.087Z,22.80
2022-12-13T18:35:04.982Z,22.63
2022-12-13T18:37:52.007Z,24.13
2022-12-13T18:40:37.793Z,24.27
2022-12-13T18:43:24.953Z,23.58
2022-12-13T18:46:12.062Z,24.30
2022-12-13T18:48:58.214Z,23.02
2022-12-13T18:51:43.844Z,25.30
2022-12-13T18:54:29.684Z,22.73
2022-12-13T18:57:15.066Z,26.85
2022-12-13T19:00:00.565Z,23.48
2022-12-13T19:02:46.302Z,23.60
2022-12-13T19:05:32.359Z,23.30
2022-12-13T19:08:17.879Z,26.40
2022-12-13T19:11:04.271Z,25.92
2022-12-13T19:13:50.402Z,21.88
2022-12-13T19:16:36.197Z,22.48
2022-12-13T19:19:22.219Z,20.17
2022-12-13T19:22:07.841Z,22.25
2022-12-13T19:24:53.314Z,20.60
2022-12-13T19:27:39.016Z,19.27
2022-12-13T19:30:24.538Z,20.45
2022-12-13T19:33:10.096Z,26.00
2022-12-13T19:35:55.895Z,25.88
2022-12-13T19:38:41.958Z,20.00
2022-12-13T19:41:28.021Z,21.60
2022-12-13T19:44:13.494Z,21.63
2022-12-13T19:47:00.000Z,22.80
2022-12-13T19:49:45.741Z,21.55
2022-12-13T19:52:34.106Z,21.50
2022-12-13T19:55:19.496Z,22.63
2022-12-13T19:58:05.257Z,22.83
2022-12-13T20:00:51.822Z,27.00
2022-12-13T20:03:42.889Z,22.85
2022-12-13T20:06:30.259Z,21.38
2022-12-13T20:09:16.000Z,22.33
2022-12-13T20:12:01.366Z,23.05
2022-12-13T20:14:47.155Z,22.92
2022-12-13T20:17:32.998Z,24.02
2022-12-13T20:20:19.547Z,22.88
2022-12-13T20:23:05.796Z,24.83
2022-12-13T20:26:03.399Z,23.13
2022-12-13T20:28:50.135Z,23.83
2022-12-13T20:31:38.426Z,24.70
2022-12-13T20:34:24.268Z,22.30
2022-12-13T20:37:10.127Z,22.70
2022-12-13T20:39:55.804Z,21.80
2022-12-13T20:42:41.401Z,24.13
2022-12-13T20:45:27.370Z,24.23
2022-12-13T20:48:13.013Z,23.80
2022-12-13T20:51:00.350Z,21.63
2022-12-13T20:53:47.883Z,23.85
2022-12-13T20:56:35.606Z,23.70
2022-12-13T20:59:21.275Z,23.92
2022-12-13T21:02:06.977Z,23.00
2022-12-13T21:04:52.561Z,24.48
2022-12-13T21:07:56.934Z,23.83
2022-12-13T21:10:42.342Z,24.60
2022-12-13T21:13:28.503Z,24.25
2022-12-13T21:16:14.751Z,24.30
2022-12-13T21:19:01.140Z,23.88
2022-12-13T21:21:47.438Z,23.77
2022-12-13T21:24:33.542Z,24.80
2022-12-13T21:27:19.773Z,24.38
2022-12-13T21:30:05.836Z,24.30
2022-12-13T21:32:53.031Z,26.48
2022-12-13T21:35:38.941Z,26.08
2022-12-13T21:38:24.554Z,26.42
2022-12-13T21:41:11.467Z,27.75
2022-12-13T21:43:57.393Z,25.45
2022-12-13T21:49:49.206Z,25.70
2022-12-13T21:52:35.533Z,23.80
2022-12-13T21:58:44.939Z,25.10
2022-12-13T22:01:51.603Z,23.45
2022-12-13T22:04:40.162Z,22.92
2022-12-13T22:07:31.546Z,22.67
2022-12-13T22:10:17.361Z,23.33
2022-12-13T22:13:02.909Z,23.27
2022-12-13T22:15:48.639Z,23.73
2022-12-13T22:18:34.201Z,24.42
2022-12-13T22:21:20.039Z,24.15
2022-12-13T22:24:06.133Z,23.40
2022-12-13T22:26:51.633Z,23.45
2022-12-13T22:29:37.249Z,23.70
2022-12-13T22:32:23.293Z,22.70
2022-12-13T22:35:09.195Z,24.10
2022-12-13T22:37:57.688Z,24.65
2022-12-13T22:40:47.017Z,23.35
2022-12-13T22:43:36.581Z,21.65
2022-12-13T22:46:22.072Z,24.48
2022-12-13T22:49:08.833Z,24.08
2022-12-13T22:51:54.327Z,22.45
2022-12-13T22:54:39.891Z,25.02
2022-12-13T22:57:25.781Z,23.20
2022-12-13T23:00:11.879Z,24.33
2022-12-13T23:02:57.266Z,23.45
2022-12-13T23:05:43.888Z,22.02
2022-12-13T23:08:29.358Z,23.80
2022-12-13T23:11:34.222Z,24.10
2022-12-13T23:14:25.019Z,22.35
2022-12-13T23:17:10.751Z,23.30
2022-12-13T23:19:56.372Z,22.48
2022-12-13T23:22:42.145Z,22.60
2022-12-13T23:25:27.654Z,21.17
2022-12-13T23:28:13.295Z,21.42
2022-12-13T23:31:01.581Z,22.50
2022-12-13T23:33:47.425Z,22.75
2022-12-13T23:36:34.088Z,21.40
2022-12-13T23:39:19.769Z,22.90
2022-12-13T23:42:05.461Z,21.50
2022-12-13T23:44:50.943Z,23.73
2022-12-13T23:47:36.496Z,23.00
2022-12-13T23:50:22.034Z,22.38
2022-12-13T23:53:07.894Z,21.55
2022-12-13T23:55:53.524Z,21.27
2022-12-13T23:58:40.639Z,22.70
